Time;durP1;ratioP1;P1;durP2;ratioP2;P2;SDS_P1;SDS_P2;PMS_P1;PMS_P2;Temp;Humidity;BMP_temperature;BMP_pressure;BME280_temperature;BME280_humidity;BME280_pressure;Samples;Min_cycle;Max_cycle;Signal;HPM_P1;HPM_P2
2021/10/29 00:02:14;;;;;;;;;;;9.40;99.90;;;;;;5016390;28;20386;-79
2021/10/29 00:04:40;;;;;;;;;;;9.50;99.90;;;;;;5030848;28;19917;-79
2021/10/29 00:07:05;;;;;;;;;;;9.40;99.90;;;;;;5014182;28;19924;-79
2021/10/29 00:09:32;;;;;;;;;;;9.40;99.90;;;;;;5041363;28;19924;-81
2021/10/29 00:12:02;;;;;;;;;;;9.40;99.90;;;;;;5014151;28;19918;-80
2021/10/29 00:14:31;;;;;;;;;;;9.40;99.90;;;;;;5031554;28;19992;-79
2021/10/29 00:16:57;;;;;;;;;;;9.30;99.90;;;;;;5055415;28;19932;-79
2021/10/29 00:19:23;;;;;;;;;;;9.30;99.90;;;;;;5037065;28;20323;-82
2021/10/29 00:21:48;;;;;;;;;;;9.40;99.90;;;;;;5044420;28;19917;-81
2021/10/29 00:24:14;;;;;;;;;;;9.40;99.90;;;;;;5051803;28;19917;-79
2021/10/29 00:26:39;;;;;;;;;;;9.40;99.90;;;;;;5049605;28;19984;-78
2021/10/29 00:29:05;;;;;;;;;;;9.40;99.90;;;;;;5047071;28;19917;-80
2021/10/29 00:31:30;;;;;;;;;;;9.40;99.90;;;;;;5024676;28;19925;-77
2021/10/29 00:33:56;;;;;;;;;;;9.30;99.90;;;;;;5020234;28;20379;-80
2021/10/29 00:36:22;;;;;;;;;;;9.30;99.90;;;;;;5013911;28;20346;-79
2021/10/29 00:38:47;;;;;;;;;;;9.30;99.90;;;;;;5014982;28;20286;-80
2021/10/29 00:41:13;;;;;;;;;;;9.30;99.90;;;;;;5022947;28;19966;-78
2021/10/29 00:43:39;;;;;;;;;;;9.30;99.90;;;;;;5020302;28;20300;-82
2021/10/29 00:46:04;;;;;;;;;;;9.30;99.90;;;;;;5021018;28;19917;-79
2021/10/29 00:48:30;;;;;;;;;;;9.30;99.90;;;;;;5001382;28;19967;-84
2021/10/29 00:50:55;;;;;;;;;;;9.40;99.90;;;;;;5020265;28;19918;-80
2021/10/29 00:53:22;;;;;;;;;;;9.40;99.90;;;;;;5024861;28;20363;-83
2021/10/29 00:55:49;;;;;;;;;;;9.30;99.90;;;;;;5034223;28;19926;-82
2021/10/29 00:58:15;;;;;;;;;;;9.30;99.90;;;;;;5026867;28;19925;-81
2021/10/29 01:00:41;;;;;;;;;;;9.40;99.90;;;;;;5002501;28;20015;-79
2021/10/29 01:03:06;;;;;;;;;;;9.40;99.90;;;;;;5031643;28;20354;-80
2021/10/29 01:05:32;;;;;;;;;;;9.40;99.90;;;;;;5025436;28;20034;-79
2021/10/29 01:07:59;;;;;;;;;;;9.30;99.90;;;;;;5033483;28;20298;-81
2021/10/29 01:10:31;;;;;;;;;;;9.30;99.90;;;;;;5026712;28;19917;-81
2021/10/29 01:12:57;;;;;;;;;;;9.30;99.90;;;;;;5014770;28;19964;-79
2021/10/29 01:15:23;;;;;;;;;;;9.30;99.90;;;;;;5021900;28;19957;-79
2021/10/29 01:17:48;;;;;;;;;;;9.30;99.90;;;;;;5014960;28;20375;-80
2021/10/29 01:20:17;;;;;;;;;;;9.20;99.90;;;;;;5003342;28;19917;-80
2021/10/29 01:22:43;;;;;;;;;;;9.30;99.90;;;;;;5015528;28;19996;-79
2021/10/29 01:25:10;;;;;;;;;;;9.30;99.90;;;;;;5040011;28;20012;-77
2021/10/29 01:27:36;;;;;;;;;;;9.20;99.90;;;;;;5033154;28;19921;-80
2021/10/29 01:30:01;;;;;;;;;;;9.20;99.90;;;;;;5027402;28;20393;-79
2021/10/29 01:32:27;;;;;;;;;;;9.20;99.90;;;;;;5021708;28;21211;-81
2021/10/29 01:34:53;;;;;;;;;;;9.10;99.90;;;;;;5016610;28;19924;-80
2021/10/29 01:37:18;;;;;;;;;;;9.10;99.90;;;;;;5023254;28;19927;-80
2021/10/29 01:39:44;;;;;;;;;;;9.10;99.90;;;;;;5013574;28;19917;-79
2021/10/29 01:42:10;;;;;;;;;;;9.10;99.90;;;;;;5033134;28;20044;-78
2021/10/29 01:44:35;;;;;;;;;;;9.10;99.90;;;;;;5027730;28;19924;-81
2021/10/29 01:47:02;;;;;;;;;;;9.10;99.90;;;;;;5029293;28;19925;-82
2021/10/29 01:49:27;;;;;;;;;;;9.10;99.90;;;;;;5002691;28;19917;-79
2021/10/29 01:51:53;;;;;;;;;;;9.10;99.90;;;;;;5038046;28;19920;-79
2021/10/29 01:54:19;;;;;;;;;;;9.10;99.90;;;;;;5025884;28;19931;-79
2021/10/29 01:56:44;;;;;;;;;;;9.00;99.90;;;;;;5015023;28;19926;-78
2021/10/29 01:59:10;;;;;;;;;;;9.00;99.90;;;;;;5034298;28;20382;-81
2021/10/29 02:01:35;;;;;;;;;;;9.00;99.90;;;;;;5041792;28;19952;-78
2021/10/29 02:04:01;;;;;;;;;;;8.90;99.90;;;;;;5016236;28;19925;-80
2021/10/29 02:06:26;;;;;;;;;;;8.90;99.90;;;;;;5024946;28;20433;-81
2021/10/29 02:08:52;;;;;;;;;;;9.10;99.90;;;;;;4995512;28;19917;-80
2021/10/29 02:11:17;;;;;;;;;;;8.90;99.90;;;;;;5021318;28;19917;-80
2021/10/29 02:13:43;;;;;;;;;;;8.90;99.90;;;;;;5015557;28;19924;-78
2021/10/29 02:16:09;;;;;;;;;;;8.80;99.90;;;;;;5018861;28;19944;-81
2021/10/29 02:18:35;;;;;;;;;;;8.80;99.90;;;;;;5015553;28;19917;-78
2021/10/29 02:21:00;;;;;;;;;;;8.70;99.90;;;;;;5028286;28;19917;-79
2021/10/29 02:23:26;;;;;;;;;;;8.70;99.90;;;;;;5029675;28;19924;-81
2021/10/29 02:25:52;;;;;;;;;;;8.70;99.90;;;;;;5044613;28;20329;-77
2021/10/29 02:28:18;;;;;;;;;;;8.70;99.90;;;;;;5029404;28;19928;-79
2021/10/29 02:30:44;;;;;;;;;;;8.60;99.90;;;;;;5017858;28;19917;-78
2021/10/29 02:33:10;;;;;;;;;;;8.60;99.90;;;;;;5001530;28;19921;-80
2021/10/29 02:35:36;;;;;;;;;;;8.60;99.90;;;;;;5004439;28;19922;-79
2021/10/29 02:38:01;;;;;;;;;;;8.70;99.90;;;;;;5015861;28;19936;-80
2021/10/29 02:40:27;;;;;;;;;;;8.70;99.90;;;;;;5045382;28;19964;-79
2021/10/29 02:42:53;;;;;;;;;;;8.70;99.90;;;;;;5028156;28;20282;-80
2021/10/29 02:45:18;;;;;;;;;;;8.70;99.90;;;;;;5022040;28;19970;-82
2021/10/29 02:47:47;;;;;;;;;;;8.60;99.90;;;;;;5002908;28;19928;-78
2021/10/29 02:50:13;;;;;;;;;;;8.60;99.90;;;;;;5032269;28;20311;-80
2021/10/29 02:52:39;;;;;;;;;;;8.60;99.90;;;;;;5057547;28;20294;-79
2021/10/29 02:55:05;;;;;;;;;;;8.60;99.90;;;;;;5030865;28;19917;-78
2021/10/29 02:57:30;;;;;;;;;;;8.60;99.90;;;;;;5052830;28;19943;-80
2021/10/29 02:59:56;;;;;;;;;;;8.60;99.90;;;;;;5032906;28;19917;-79
2021/10/29 03:02:21;;;;;;;;;;;8.60;99.90;;;;;;5016869;28;20390;-81
2021/10/29 03:04:47;;;;;;;;;;;8.60;99.90;;;;;;5016718;28;20306;-83
2021/10/29 03:07:13;;;;;;;;;;;8.70;99.90;;;;;;5022456;28;19925;-81
2021/10/29 03:09:38;;;;;;;;;;;8.70;99.90;;;;;;5016547;28;19917;-82
2021/10/29 03:12:04;;;;;;;;;;;8.70;99.90;;;;;;5018651;28;19924;-79
2021/10/29 03:14:30;;;;;;;;;;;8.60;99.90;;;;;;5019499;28;19917;-80
2021/10/29 03:16:55;;;;;;;;;;;8.70;99.90;;;;;;5048757;28;20051;-81
2021/10/29 03:19:21;;;;;;;;;;;8.70;99.90;;;;;;5060553;28;19967;-82
2021/10/29 03:21:46;;;;;;;;;;;8.70;99.90;;;;;;5029323;28;19924;-81
2021/10/29 03:24:12;;;;;;;;;;;8.80;99.90;;;;;;5029810;28;19924;-78
2021/10/29 03:26:38;;;;;;;;;;;8.80;99.90;;;;;;5014261;28;19917;-81
2021/10/29 03:29:03;;;;;;;;;;;8.80;99.90;;;;;;5023792;28;20055;-78
2021/10/29 03:31:29;;;;;;;;;;;8.90;99.90;;;;;;5040665;28;19933;-76
2021/10/29 03:33:55;;;;;;;;;;;8.90;99.90;;;;;;5019189;28;20301;-80
2021/10/29 03:36:21;;;;;;;;;;;8.90;99.90;;;;;;5033901;28;20427;-80
2021/10/29 03:39:05;;;;;;;;;;;8.90;99.90;;;;;;5022449;28;19921;-80
2021/10/29 03:41:34;;;;;;;;;;;8.90;99.90;;;;;;5020705;28;19916;-81
2021/10/29 03:44:19;;;;;;;;;;;8.90;99.90;;;;;;5033076;28;19944;-83
2021/10/29 03:46:45;;;;;;;;;;;8.90;99.90;;;;;;5025605;28;19924;-81
2021/10/29 03:49:30;;;;;;;;;;;8.90;99.90;;;;;;5017389;28;19917;-82
2021/10/29 03:52:03;;;;;;;;;;;8.80;99.90;;;;;;5020622;28;19917;-81
2021/10/29 03:54:32;;;;;;;;;;;8.80;99.90;;;;;;5038539;28;19917;-81
2021/10/29 03:57:42;;;;;;;;;;;8.80;99.90;;;;;;5015365;28;20410;-78
2021/10/29 03:59:43;;;;;;;;;;;8.80;99.90;;;;;;5017516;28;20383;-82
2021/10/29 04:02:12;;;;;;;;;;;8.80;99.90;;;;;;5038740;28;19961;-80
2021/10/29 04:04:37;;;;;;;;;;;8.80;99.90;;;;;;5033514;28;19927;-80
2021/10/29 04:07:03;;;;;;;;;;;8.80;99.90;;;;;;5049325;28;19996;-82
2021/10/29 04:09:29;;;;;;;;;;;8.70;99.90;;;;;;5022432;28;19921;-81
2021/10/29 04:11:57;;;;;;;;;;;8.70;99.90;;;;;;5015003;28;19925;-83
2021/10/29 04:14:27;;;;;;;;;;;8.80;99.90;;;;;;5019502;28;20004;-81
2021/10/29 04:16:53;;;;;;;;;;;8.80;99.90;;;;;;5013736;28;20359;-80
2021/10/29 04:19:19;;;;;;;;;;;8.70;99.90;;;;;;5014275;28;19928;-81
2021/10/29 04:21:44;;;;;;;;;;;8.80;99.90;;;;;;5047098;28;19917;-83
2021/10/29 04:24:11;;;;;;;;;;;8.80;99.90;;;;;;5032769;28;20421;-79
2021/10/29 04:26:37;;;;;;;;;;;8.80;99.90;;;;;;5037208;28;20366;-82
2021/10/29 04:29:12;;;;;;;;;;;8.90;99.90;;;;;;5035629;28;19928;-82
2021/10/29 04:31:47;;;;;;;;;;;8.80;99.90;;;;;;5039253;28;19968;-81
2021/10/29 04:34:12;;;;;;;;;;;8.80;99.90;;;;;;5030462;28;19948;-83
2021/10/29 04:36:38;;;;;;;;;;;8.80;99.90;;;;;;5048340;28;19920;-80
2021/10/29 04:39:11;;;;;;;;;;;8.70;99.90;;;;;;5022243;28;19957;-80
2021/10/29 04:41:37;;;;;;;;;;;8.70;99.90;;;;;;5017377;28;19952;-83
2021/10/29 04:44:02;;;;;;;;;;;8.80;99.90;;;;;;5014372;28;19918;-80
2021/10/29 04:46:30;;;;;;;;;;;8.80;99.90;;;;;;5042127;28;19917;-80
2021/10/29 04:48:56;;;;;;;;;;;8.80;99.90;;;;;;5034397;28;19917;-81
2021/10/29 04:51:21;;;;;;;;;;;8.80;99.90;;;;;;5026140;28;19944;-81
2021/10/29 04:53:47;;;;;;;;;;;8.80;99.90;;;;;;5031971;28;19940;-80
2021/10/29 04:56:13;;;;;;;;;;;8.80;99.90;;;;;;5038436;28;20008;-80
2021/10/29 04:58:38;;;;;;;;;;;8.90;99.90;;;;;;5047777;28;19956;-80
2021/10/29 05:01:04;;;;;;;;;;;8.90;99.90;;;;;;5022095;28;19921;-79
2021/10/29 05:03:32;;;;;;;;;;;8.90;99.90;;;;;;5020619;28;19917;-82
2021/10/29 05:05:58;;;;;;;;;;;9.00;99.90;;;;;;5041644;28;19964;-80
2021/10/29 05:08:24;;;;;;;;;;;9.00;99.90;;;;;;5038662;28;19962;-81
2021/10/29 05:10:50;;;;;;;;;;;9.00;99.90;;;;;;5039813;28;19976;-82
2021/10/29 05:13:16;;;;;;;;;;;9.10;99.90;;;;;;5020030;28;20025;-80
2021/10/29 05:15:42;;;;;;;;;;;9.00;99.90;;;;;;5028872;28;19925;-80
2021/10/29 05:18:13;;;;;;;;;;;9.10;99.90;;;;;;5032072;28;19927;-80
2021/10/29 05:20:39;;;;;;;;;;;9.10;99.90;;;;;;5037315;28;20008;-83
2021/10/29 05:23:04;;;;;;;;;;;9.10;99.90;;;;;;5000263;28;20005;-79
2021/10/29 05:25:30;;;;;;;;;;;9.10;99.90;;;;;;5026263;28;20441;-81
2021/10/29 05:27:56;;;;;;;;;;;9.10;99.90;;;;;;5002553;28;19925;-82
2021/10/29 05:30:21;;;;;;;;;;;9.10;99.90;;;;;;5045093;28;20008;-78
2021/10/29 05:32:47;;;;;;;;;;;9.10;99.90;;;;;;5001734;28;19922;-81
2021/10/29 05:35:13;;;;;;;;;;;9.00;99.90;;;;;;5037495;28;19917;-81
2021/10/29 05:37:38;;;;;;;;;;;9.00;99.90;;;;;;5027335;28;19928;-80
2021/10/29 05:40:05;;;;;;;;;;;9.00;99.90;;;;;;5039623;28;19940;-81
2021/10/29 05:42:33;;;;;;;;;;;9.00;99.90;;;;;;5025173;28;20008;-83
2021/10/29 05:45:00;;;;;;;;;;;8.90;99.90;;;;;;5038928;28;19916;-81
2021/10/29 05:47:25;;;;;;;;;;;8.90;99.90;;;;;;5030871;28;19932;-81
2021/10/29 05:49:51;;;;;;;;;;;8.90;99.90;;;;;;5037058;28;19950;-79
2021/10/29 05:52:21;;;;;;;;;;;8.30;99.90;;;;;;5003859;28;19928;-78
2021/10/29 05:57:25;;;;;;;;;;;8.90;99.90;;;;;;5031152;28;20439;-80
2021/10/29 05:59:52;;;;;;;;;;;9.00;99.90;;;;;;5030844;28;19917;-81
2021/10/29 06:02:18;;;;;;;;;;;9.00;99.90;;;;;;5018817;28;19917;-81
2021/10/29 06:04:44;;;;;;;;;;;9.00;99.90;;;;;;5051502;28;19929;-81
2021/10/29 06:07:09;;;;;;;;;;;9.00;99.90;;;;;;5034571;28;19917;-85
2021/10/29 06:09:35;;;;;;;;;;;9.00;99.90;;;;;;5014198;28;19928;-81
2021/10/29 06:12:01;;;;;;;;;;;9.10;99.90;;;;;;5028767;28;19917;-80
2021/10/29 06:14:27;;;;;;;;;;;9.10;99.90;;;;;;5030627;28;19921;-79
2021/10/29 06:16:57;;;;;;;;;;;9.10;99.90;;;;;;5021662;28;20028;-79
2021/10/29 06:19:23;;;;;;;;;;;9.10;99.90;;;;;;5046759;28;19990;-79
2021/10/29 06:22:04;;;;;;;;;;;9.10;99.90;;;;;;5021950;28;20079;-78
2021/10/29 06:24:30;;;;;;;;;;;9.20;99.90;;;;;;5031285;28;19928;-78
2021/10/29 06:27:07;;;;;;;;;;;9.20;99.90;;;;;;5014558;28;20340;-79
2021/10/29 06:29:33;;;;;;;;;;;9.20;99.90;;;;;;5018396;28;19943;-80
2021/10/29 06:31:59;;;;;;;;;;;9.20;99.90;;;;;;5028274;28;19918;-79
2021/10/29 06:34:25;;;;;;;;;;;9.20;99.90;;;;;;5029697;28;19997;-78
2021/10/29 06:36:50;;;;;;;;;;;9.20;99.90;;;;;;5040190;28;19964;-78
2021/10/29 06:39:17;;;;;;;;;;;9.20;99.90;;;;;;5018883;28;20430;-79
2021/10/29 06:41:42;;;;;;;;;;;9.20;99.90;;;;;;5012353;28;20075;-80
2021/10/29 06:59:11;;;;;;;;;;;9.20;99.90;;;;;;5023249;28;19939;-83
2021/10/29 07:00:43;;;;;;;;;;;9.30;99.90;;;;;;5023543;28;19923;-79
2021/10/29 07:41:38;;;;;;;;;;;9.80;99.90;;;;;;5054266;28;19917;-80
2021/10/29 07:44:13;;;;;;;;;;;9.90;99.90;;;;;;5015277;28;19937;-80
2021/10/29 07:46:39;;;;;;;;;;;9.90;99.90;;;;;;5016221;28;19917;-80
2021/10/29 07:49:06;;;;;;;;;;;10.10;99.90;;;;;;5027670;28;19917;-80
2021/10/29 07:51:32;;;;;;;;;;;10.10;99.90;;;;;;5029863;28;19928;-80
2021/10/29 07:53:57;;;;;;;;;;;10.20;99.90;;;;;;5017501;28;19921;-79
2021/10/29 07:56:23;;;;;;;;;;;10.20;99.90;;;;;;5016466;28;19921;-80
2021/10/29 07:58:49;;;;;;;;;;;10.30;99.90;;;;;;5040156;28;19923;-81
2021/10/29 08:01:14;;;;;;;;;;;10.40;99.90;;;;;;5027178;28;20413;-81
2021/10/29 08:03:40;;;;;;;;;;;10.40;99.90;;;;;;5029794;28;19923;-88
2021/10/29 08:06:06;;;;;;;;;;;10.50;99.90;;;;;;5011678;28;19917;-80
2021/10/29 08:08:31;;;;;;;;;;;10.60;99.90;;;;;;5017217;28;20004;-81
2021/10/29 08:10:57;;;;;;;;;;;10.70;99.90;;;;;;5026623;28;19949;-83
2021/10/29 08:13:23;;;;;;;;;;;10.80;99.90;;;;;;4997288;28;19917;-86
2021/10/29 08:15:54;;;;;;;;;;;10.90;99.90;;;;;;5014483;28;19921;-82
2021/10/29 08:18:21;;;;;;;;;;;10.90;99.90;;;;;;5033977;28;19924;-80
2021/10/29 08:20:47;;;;;;;;;;;11.00;99.90;;;;;;5020698;28;19957;-82
2021/10/29 08:23:13;;;;;;;;;;;11.10;99.90;;;;;;5018906;28;19960;-77
2021/10/29 08:25:39;;;;;;;;;;;11.20;99.90;;;;;;5030430;28;19917;-78
2021/10/29 08:28:04;;;;;;;;;;;11.30;99.90;;;;;;5047996;28;19924;-81
2021/10/29 08:30:33;;;;;;;;;;;11.30;99.90;;;;;;5046947;28;20462;-80
2021/10/29 08:32:59;;;;;;;;;;;11.40;99.90;;;;;;5035068;28;19972;-84
2021/10/29 08:35:24;;;;;;;;;;;11.50;99.90;;;;;;5016884;28;19923;-83
2021/10/29 08:37:51;;;;;;;;;;;11.60;99.90;;;;;;5003010;28;20367;-80
2021/10/29 08:40:17;;;;;;;;;;;11.70;99.90;;;;;;5030416;28;19921;-81
2021/10/29 08:42:43;;;;;;;;;;;11.80;99.90;;;;;;5047052;28;20036;-78
2021/10/29 08:45:09;;;;;;;;;;;11.80;99.90;;;;;;5030624;28;19932;-79
2021/10/29 08:47:40;;;;;;;;;;;11.90;99.90;;;;;;5009824;28;19924;-83
2021/10/29 08:50:07;;;;;;;;;;;12.00;99.90;;;;;;5040292;28;20006;-82
2021/10/29 08:52:33;;;;;;;;;;;12.00;99.90;;;;;;5046515;28;19926;-79
2021/10/29 08:54:59;;;;;;;;;;;12.10;99.90;;;;;;5047255;28;19925;-80
2021/10/29 08:57:25;;;;;;;;;;;12.20;99.90;;;;;;5053818;28;19921;-83
2021/10/29 08:59:53;;;;;;;;;;;12.20;99.90;;;;;;5020281;28;19917;-84
2021/10/29 09:04:58;;;;;;;;;;;12.30;99.90;;;;;;5026912;28;19921;-79
2021/10/29 09:07:35;;;;;;;;;;;12.40;99.90;;;;;;5035027;28;19917;-83
2021/10/29 09:32:18;;;;;;;;;;;13.00;99.90;;;;;;5020256;28;19928;-80
2021/10/29 09:35:03;;;;;;;;;;;13.10;99.90;;;;;;5052163;28;19925;-78
2021/10/29 09:37:36;;;;;;;;;;;13.20;99.90;;;;;;5024062;28;20008;-79
2021/10/29 09:40:12;;;;;;;;;;;13.30;99.90;;;;;;5013957;28;19921;-78
2021/10/29 09:42:39;;;;;;;;;;;13.30;99.90;;;;;;5046918;28;20382;-83
2021/10/29 09:45:13;;;;;;;;;;;13.40;99.90;;;;;;5014875;28;19917;-80
2021/10/29 09:47:39;;;;;;;;;;;13.40;99.90;;;;;;5026905;28;20290;-80
2021/10/29 09:50:22;;;;;;;;;;;13.40;99.90;;;;;;5033626;28;20239;-80
2021/10/29 09:53:02;;;;;;;;;;;13.40;99.90;;;;;;5018195;28;20366;-79
2021/10/29 09:55:47;;;;;;;;;;;13.50;99.90;;;;;;5021227;28;19918;-81
2021/10/29 09:58:13;;;;;;;;;;;13.60;99.90;;;;;;5019047;28;19926;-79
2021/10/29 10:00:39;;;;;;;;;;;13.70;99.90;;;;;;5048349;28;19995;-78
2021/10/29 10:03:05;;;;;;;;;;;13.80;99.90;;;;;;5034808;28;19968;-80
2021/10/29 10:05:30;;;;;;;;;;;13.90;99.90;;;;;;5022601;28;19917;-79
2021/10/29 10:07:59;;;;;;;;;;;14.00;99.90;;;;;;5021325;28;19917;-79
2021/10/29 10:10:25;;;;;;;;;;;14.00;99.90;;;;;;5021054;28;20401;-79
2021/10/29 10:12:52;;;;;;;;;;;14.10;99.90;;;;;;5029839;28;19957;-81
2021/10/29 10:15:19;;;;;;;;;;;14.10;99.90;;;;;;5029689;28;19940;-79
2021/10/29 10:17:45;;;;;;;;;;;14.10;99.90;;;;;;5045759;28;20016;-82
2021/10/29 10:20:11;;;;;;;;;;;14.20;99.90;;;;;;5008841;28;20004;-79
2021/10/29 10:22:38;;;;;;;;;;;14.20;99.90;;;;;;5024985;28;20403;-80
2021/10/29 10:25:09;;;;;;;;;;;14.10;99.90;;;;;;5025167;28;19970;-81
2021/10/29 10:47:01;;;;;;;;;;;14.70;99.90;;;;;;5018131;28;19972;-79
2021/10/29 10:49:39;;;;;;;;;;;14.80;99.90;;;;;;5022700;28;19921;-83
2021/10/29 10:52:15;;;;;;;;;;;14.80;99.90;;;;;;5015581;28;19956;-79
2021/10/29 10:54:52;;;;;;;;;;;14.90;99.90;;;;;;5042759;28;19917;-82
2021/10/29 11:00:47;;;;;;;;;;;15.00;99.90;;;;;;5033729;28;19917;-81
2021/10/29 11:05:35;;;;;;;;;;;15.20;99.90;;;;;;5015786;28;19924;-82
2021/10/29 11:10:53;;;;;;;;;;;15.20;99.90;;;;;;5013226;28;19924;-82
2021/10/29 11:13:19;;;;;;;;;;;15.20;99.90;;;;;;5029744;28;20000;-79
2021/10/29 11:15:56;;;;;;;;;;;15.30;99.90;;;;;;5012670;28;19917;-80
2021/10/29 11:18:29;;;;;;;;;;;15.30;99.90;;;;;;5013952;28;20249;-81
2021/10/29 11:21:05;;;;;;;;;;;15.40;99.90;;;;;;5016892;28;19928;-79
2021/10/29 11:23:33;;;;;;;;;;;15.40;99.90;;;;;;5030360;28;19923;-80
2021/10/29 11:26:07;;;;;;;;;;;15.40;99.90;;;;;;5044334;28;19925;-81
2021/10/29 11:28:37;;;;;;;;;;;15.50;99.90;;;;;;5000184;28;19979;-81
2021/10/29 11:31:04;;;;;;;;;;;15.50;99.90;;;;;;5042511;28;19927;-82
2021/10/29 11:33:30;;;;;;;;;;;15.60;99.90;;;;;;5040296;28;20008;-78
2021/10/29 11:35:58;;;;;;;;;;;15.60;99.90;;;;;;5058814;28;20015;-79
2021/10/29 11:38:23;;;;;;;;;;;15.70;99.90;;;;;;5018534;28;19917;-81
2021/10/29 11:40:51;;;;;;;;;;;15.70;99.90;;;;;;5008277;28;19963;-81
2021/10/29 11:43:21;;;;;;;;;;;15.70;99.90;;;;;;5031598;28;19925;-83
2021/10/29 11:45:59;;;;;;;;;;;15.80;99.90;;;;;;5024839;28;20379;-80
2021/10/29 11:48:25;;;;;;;;;;;15.80;99.90;;;;;;5032025;28;19924;-85
2021/10/29 11:51:10;;;;;;;;;;;15.80;99.90;;;;;;5046358;28;20136;-79
2021/10/29 11:53:42;;;;;;;;;;;15.80;99.90;;;;;;5036402;28;19924;-78
2021/10/29 11:56:22;;;;;;;;;;;15.80;99.90;;;;;;5027879;28;19960;-78
2021/10/29 11:59:00;;;;;;;;;;;15.80;99.90;;;;;;5044648;28;20295;-84
2021/10/29 12:01:31;;;;;;;;;;;15.80;99.90;;;;;;5008378;28;20003;-80
2021/10/29 12:09:29;;;;;;;;;;;16.00;99.90;;;;;;5040679;28;20370;-78
2021/10/29 12:11:58;;;;;;;;;;;16.00;99.90;;;;;;5031744;28;20394;-81
2021/10/29 12:14:30;;;;;;;;;;;16.10;99.90;;;;;;5010111;28;20390;-81
2021/10/29 12:17:02;;;;;;;;;;;16.10;99.90;;;;;;5065899;28;19921;-81
2021/10/29 12:19:29;;;;;;;;;;;16.20;99.90;;;;;;5065101;28;20393;-80
2021/10/29 12:22:04;;;;;;;;;;;16.20;99.90;;;;;;5001453;28;19925;-79
2021/10/29 12:24:32;;;;;;;;;;;16.30;99.90;;;;;;5044953;28;19917;-78
2021/10/29 12:26:59;;;;;;;;;;;16.40;99.90;;;;;;5055595;28;20326;-80
2021/10/29 12:29:26;;;;;;;;;;;16.50;99.90;;;;;;5054455;28;20007;-83
2021/10/29 13:03:21;;;;;;;;;;;16.90;99.90;;;;;;5000627;28;19924;-81
2021/10/29 13:05:57;;;;;;;;;;;17.00;99.90;;;;;;5058143;28;19924;-78
2021/10/29 13:08:23;;;;;;;;;;;17.00;99.90;;;;;;5058586;28;20502;-84
2021/10/29 13:10:57;;;;;;;;;;;17.00;99.90;;;;;;5046945;28;19917;-84
2021/10/29 13:13:43;;;;;;;;;;;17.00;99.90;;;;;;5016445;28;19927;-80
2021/10/29 13:16:12;;;;;;;;;;;17.00;99.90;;;;;;5033305;28;19921;-80
2021/10/29 13:18:45;;;;;;;;;;;17.10;99.90;;;;;;5053543;28;19916;-79
2021/10/29 13:38:04;;;;;;;;;;;17.50;99.90;;;;;;5029292;28;19921;-82
2021/10/29 13:53:42;;;;;;;;;;;16.90;99.90;;;;;;5028665;28;19917;-81
2021/10/29 13:56:20;;;;;;;;;;;16.80;99.90;;;;;;5040640;28;19921;-78
2021/10/29 13:59:08;;;;;;;;;;;16.90;99.90;;;;;;5023678;28;19922;-81
2021/10/29 14:28:45;;;;;;;;;;;19.40;99.90;;;;;;5037264;28;19917;-82
2021/10/29 14:31:18;;;;;;;;;;;19.60;99.90;;;;;;5019391;28;19967;-81
2021/10/29 14:33:52;;;;;;;;;;;19.80;99.90;;;;;;5039004;28;20397;-81
2021/10/29 14:36:20;;;;;;;;;;;19.90;99.10;;;;;;5024233;28;19921;-80
2021/10/29 14:39:27;;;;;;;;;;;19.70;99.90;;;;;;5030407;28;19917;-80
2021/10/29 14:42:16;;;;;;;;;;;19.40;99.90;;;;;;5043444;28;19921;-82
2021/10/29 14:44:38;;;;;;;;;;;18.90;99.90;;;;;;5036481;28;19979;-82
2021/10/29 15:17:16;;;;;;;;;;;17.20;99.90;;;;;;5029091;28;19925;-82
2021/10/29 15:41:22;;;;;;;;;;;15.20;99.90;;;;;;5030380;28;19924;-86
2021/10/29 15:44:06;;;;;;;;;;;15.10;99.90;;;;;;5019078;28;19924;-83
2021/10/29 15:51:57;;;;;;;;;;;14.70;99.90;;;;;;5022510;28;19996;-81
2021/10/29 15:54:24;;;;;;;;;;;14.60;99.90;;;;;;5021054;28;19917;-81
2021/10/29 15:56:53;;;;;;;;;;;14.50;99.90;;;;;;5039501;28;19921;-85
2021/10/29 16:18:39;;;;;;;;;;;13.90;99.90;;;;;;5033070;28;19924;-82
2021/10/29 16:21:05;;;;;;;;;;;13.80;99.90;;;;;;5012540;28;20291;-80
2021/10/29 16:23:30;;;;;;;;;;;13.70;99.90;;;;;;5029046;28;20309;-81
2021/10/29 16:28:27;;;;;;;;;;;13.60;99.90;;;;;;5058513;28;19980;-82
2021/10/29 16:30:52;;;;;;;;;;;13.50;99.90;;;;;;5034928;28;20009;-83
2021/10/29 16:33:29;;;;;;;;;;;13.50;99.90;;;;;;5054433;28;20007;-80
2021/10/29 16:35:55;;;;;;;;;;;13.40;99.90;;;;;;5060806;28;19921;-85
2021/10/29 16:38:21;;;;;;;;;;;13.40;99.90;;;;;;5026271;28;20004;-82
2021/10/29 16:40:47;;;;;;;;;;;13.30;99.90;;;;;;5017223;28;19917;-86
2021/10/29 16:43:13;;;;;;;;;;;13.30;99.90;;;;;;5016450;28;20802;-85
2021/10/29 16:45:46;;;;;;;;;;;13.30;99.90;;;;;;5050996;28;19917;-81
2021/10/29 16:48:13;;;;;;;;;;;13.20;99.90;;;;;;5053312;28;19928;-82
2021/10/29 16:50:39;;;;;;;;;;;13.20;99.90;;;;;;5020947;28;19924;-84
2021/10/29 16:53:05;;;;;;;;;;;13.20;99.90;;;;;;5030229;28;19931;-82
2021/10/29 16:55:30;;;;;;;;;;;13.20;99.90;;;;;;5013739;28;19917;-84
2021/10/29 16:57:56;;;;;;;;;;;13.10;99.90;;;;;;5027152;28;20739;-80
2021/10/29 17:00:22;;;;;;;;;;;13.10;99.90;;;;;;5047478;28;19928;-84
2021/10/29 17:02:47;;;;;;;;;;;13.20;99.90;;;;;;5019315;28;19917;-82
2021/10/29 17:05:13;;;;;;;;;;;13.20;99.90;;;;;;5030267;28;19953;-79
2021/10/29 17:07:39;;;;;;;;;;;13.10;99.90;;;;;;5024243;28;20375;-83
2021/10/29 17:10:07;;;;;;;;;;;13.10;99.90;;;;;;5031034;28;19925;-83
2021/10/29 17:12:37;;;;;;;;;;;13.10;99.90;;;;;;5023044;28;19916;-82
2021/10/29 17:15:09;;;;;;;;;;;13.10;99.90;;;;;;5050242;28;19924;-84
2021/10/29 17:17:34;;;;;;;;;;;13.20;99.90;;;;;;5033971;28;19964;-82
2021/10/29 17:20:00;;;;;;;;;;;13.20;99.90;;;;;;5028578;28;19945;-83
2021/10/29 17:22:26;;;;;;;;;;;13.20;99.90;;;;;;5042339;28;19928;-83
2021/10/29 17:24:52;;;;;;;;;;;13.20;99.90;;;;;;5023964;28;20350;-80
2021/10/29 17:27:17;;;;;;;;;;;13.20;99.90;;;;;;5034858;28;20369;-82
2021/10/29 17:29:43;;;;;;;;;;;13.20;99.90;;;;;;5028284;28;19921;-83
2021/10/29 17:32:11;;;;;;;;;;;13.20;99.90;;;;;;5031260;28;20392;-85
2021/10/29 17:34:37;;;;;;;;;;;13.10;99.90;;;;;;5040137;28;19925;-78
2021/10/29 17:37:03;;;;;;;;;;;13.10;99.90;;;;;;5023505;28;19921;-80
2021/10/29 17:39:29;;;;;;;;;;;13.10;99.90;;;;;;5031785;28;19940;-81
2021/10/29 17:41:56;;;;;;;;;;;13.10;99.90;;;;;;5029371;28;19971;-81
2021/10/29 17:44:23;;;;;;;;;;;12.90;99.90;;;;;;5027817;28;19952;-85
2021/10/29 17:46:48;;;;;;;;;;;13.10;99.90;;;;;;5029596;28;20371;-82
2021/10/29 17:49:14;;;;;;;;;;;13.10;99.90;;;;;;5023660;28;19928;-82
2021/10/29 17:51:42;;;;;;;;;;;13.10;99.90;;;;;;5024703;28;19956;-81
2021/10/29 17:54:07;;;;;;;;;;;13.00;99.90;;;;;;5036058;28;19917;-80
2021/10/29 17:56:33;;;;;;;;;;;13.00;99.90;;;;;;5047157;28;19944;-80
2021/10/29 17:58:59;;;;;;;;;;;13.00;99.90;;;;;;5022364;28;21766;-79
2021/10/29 18:01:24;;;;;;;;;;;13.00;99.90;;;;;;5021838;28;20007;-81
2021/10/29 18:03:50;;;;;;;;;;;12.90;99.90;;;;;;5021539;28;19921;-84
2021/10/29 18:06:16;;;;;;;;;;;12.90;99.90;;;;;;5024108;28;19921;-82
2021/10/29 18:08:44;;;;;;;;;;;12.90;99.90;;;;;;5018308;28;19928;-79
2021/10/29 18:11:10;;;;;;;;;;;12.90;99.90;;;;;;5024813;28;19921;-81
2021/10/29 18:13:37;;;;;;;;;;;12.80;99.90;;;;;;5026647;28;20001;-80
2021/10/29 18:16:02;;;;;;;;;;;12.80;99.90;;;;;;5043280;28;19921;-83
2021/10/29 18:18:28;;;;;;;;;;;12.80;99.90;;;;;;5048698;28;19928;-80
2021/10/29 18:20:58;;;;;;;;;;;12.80;99.90;;;;;;5000456;28;19925;-81
2021/10/29 18:23:24;;;;;;;;;;;12.80;99.90;;;;;;5012400;28;19917;-80
2021/10/29 18:25:50;;;;;;;;;;;12.70;99.90;;;;;;5026422;28;19928;-78
2021/10/29 18:28:16;;;;;;;;;;;12.70;99.90;;;;;;5016806;28;19921;-79
2021/10/29 18:30:41;;;;;;;;;;;12.70;99.90;;;;;;5034561;28;20349;-77
2021/10/29 18:33:07;;;;;;;;;;;12.70;99.90;;;;;;5010730;28;19960;-81
2021/10/29 18:37:25;;;;;;;5.65;2.42;;;12.70;99.90;;;;;;5127841;27;20502;-79
2021/10/29 18:39:53;;;;;;;5.82;2.70;;;12.80;99.90;;;;;;5101137;28;20390;-80
2021/10/29 18:42:21;;;;;;;6.82;4.35;;;12.80;99.90;;;;;;5111432;27;20116;-78
2021/10/29 18:44:48;;;;;;;4.45;3.17;;;13.00;99.90;;;;;;5119854;27;20043;-80
2021/10/29 18:47:14;;;;;;;5.22;2.95;;;13.10;99.90;;;;;;5115361;27;20074;-76
2021/10/29 18:49:41;;;;;;;2.70;2.45;;;13.30;99.90;;;;;;5112480;27;20431;-77
2021/10/29 18:52:08;;;;;;;2.60;1.85;;;13.40;99.90;;;;;;5112303;27;20047;-81
2021/10/29 18:54:35;;;;;;;3.10;2.13;;;13.50;99.90;;;;;;5112165;27;20052;-81
2021/10/29 18:57:06;;;;;;;2.22;1.88;;;13.70;99.90;;;;;;5107082;27;20356;-83
2021/10/29 18:59:32;;;;;;;3.20;2.60;;;13.80;99.90;;;;;;5109513;27;20043;-81
2021/10/29 19:02:01;;;;;;;4.28;2.20;;;13.90;99.90;;;;;;5102344;27;20071;-80
2021/10/29 19:04:26;;;;;;;2.10;1.73;;;14.10;99.90;;;;;;5110214;27;20051;-84
2021/10/29 19:06:52;;;;;;;2.85;2.05;;;14.20;99.90;;;;;;5071025;28;20043;-80